Time;durP1;ratioP1;P1;durP2;ratioP2;P2;SDS_P1;SDS_P2;PMS_P1;PMS_P2;Temp;Humidity;BMP_temperature;BMP_pressure;BME280_temperature;BME280_humidity;BME280_pressure;Samples;Min_cycle;Max_cycle;Signal;HPM_P1;HPM_P2
2023/10/15 00:01:31;;;;;;;;;;;;;;;;;;6310739;28;19962;-85
2023/10/15 00:04:33;;;;;;;;;;;;;;;;;;6305836;28;19914;-85
2023/10/15 00:07:33;;;;;;;;;;;;;;;;;;6325696;28;20010;-85
2023/10/15 00:10:37;;;;;;;;;;;;;;;;;;6313767;28;20330;-85
2023/10/15 00:13:37;;;;;;;;;;;;;;;;;;6299692;28;20362;-85
2023/10/15 00:16:38;;;;;;;;;;;;;;;;;;6313143;28;19908;-85
2023/10/15 00:19:39;;;;;;;;;;;;;;;;;;6305418;28;19992;-85
2023/10/15 00:22:39;;;;;;;;;;;;;;;;;;6305654;28;19908;-85
2023/10/15 00:25:47;;;;;;;;;;;;;;;;;;6302793;28;19912;-85
2023/10/15 00:28:47;;;;;;;;;;;;;;;;;;6328430;28;19924;-85
2023/10/15 00:31:47;;;;;;;;;;;;;;;;;;6334181;28;19958;-86
2023/10/15 00:34:49;;;;;;;;;;;;;;;;;;6309743;28;19955;-85
2023/10/15 00:37:55;;;;;;;;;;;;;;;;;;6320834;28;19912;-85
2023/10/15 00:41:08;;;;;;;;;;;;;;;;;;6312285;28;19912;-85
2023/10/15 00:44:09;;;;;;;;;;;;;;;;;;6312408;28;19907;-85
2023/10/15 00:47:15;;;;;;;;;;;;;;;;;;6310846;28;19939;-86
2023/10/15 00:50:16;;;;;;;;;;;;;;;;;;6312190;28;20408;-85
2023/10/15 00:53:23;;;;;;;;;;;;;;;;;;6317096;28;19919;-85
2023/10/15 00:56:23;;;;;;;;;;;;;;;;;;6327340;28;19912;-85
2023/10/15 00:59:43;;;;;;;;;;;;;;;;;;6311633;28;20081;-85
2023/10/15 01:02:44;;;;;;;;;;;;;;;;;;6343540;28;20393;-86
2023/10/15 01:05:53;;;;;;;;;;;;;;;;;;6312616;28;19951;-85
2023/10/15 01:08:53;;;;;;;;;;;;;;;;;;6321805;28;19926;-85
2023/10/15 01:11:56;;;;;;;;;;;;;;;;;;6320985;28;19912;-85
2023/10/15 01:14:56;;;;;;;;;;;;;;;;;;6322248;28;19916;-85
2023/10/15 01:18:03;;;;;;;;;;;;;;;;;;6309402;28;20491;-85
2023/10/15 01:21:10;;;;;;;;;;;;;;;;;;6328982;28;19908;-85
2023/10/15 01:24:10;;;;;;;;;;;;;;;;;;6333939;28;19916;-85
2023/10/15 01:27:11;;;;;;;;;;;;;;;;;;6311095;28;19919;-84
2023/10/15 01:30:17;;;;;;;;;;;;;;;;;;6316621;28;19916;-85
2023/10/15 01:33:17;;;;;;;;;;;;;;;;;;6308049;28;20267;-85
2023/10/15 01:36:29;;;;;;;;;;;;;;;;;;6334950;28;19912;-85
2023/10/15 01:39:37;;;;;;;;;;;;;;;;;;6306961;28;19997;-85
2023/10/15 01:42:40;;;;;;;;;;;;;;;;;;6319128;28;19909;-85
2023/10/15 01:45:47;;;;;;;;;;;;;;;;;;6312891;28;19919;-85
2023/10/15 01:48:47;;;;;;;;;;;;;;;;;;6337326;27;19920;-85
2023/10/15 01:51:47;;;;;;;;;;;;;;;;;;6316344;28;19922;-85
2023/10/15 01:54:47;;;;;;;;;;;;;;;;;;6313683;28;20281;-85
2023/10/15 01:57:47;;;;;;;;;;;;;;;;;;6322551;28;20297;-85
2023/10/15 02:00:50;;;;;;;;;;;;;;;;;;6311194;28;20860;-85
2023/10/15 02:03:50;;;;;;;;;;;;;;;;;;6321362;28;19912;-85
2023/10/15 02:06:55;;;;;;;;;;;;;;;;;;6334387;28;20415;-85
2023/10/15 02:09:55;;;;;;;;;;;;;;;;;;6327364;28;20373;-84
2023/10/15 02:13:04;;;;;;;;;;;;;;;;;;6320936;28;19964;-85
2023/10/15 02:16:15;;;;;;;;;;;;;;;;;;6311380;28;19908;-85
2023/10/15 02:19:19;;;;;;;;;;;;;;;;;;6337330;28;19911;-85
2023/10/15 02:22:21;;;;;;;;;;;;;;;;;;6323145;28;20416;-85
2023/10/15 02:25:27;;;;;;;;;;;;;;;;;;6311946;28;20331;-85
2023/10/15 02:28:27;;;;;;;;;;;;;;;;;;6302995;28;19939;-85
2023/10/15 02:31:30;;;;;;;;;;;;;;;;;;6315484;28;19908;-85
2023/10/15 02:34:30;;;;;;;;;;;;;;;;;;6319172;28;19911;-85
2023/10/15 02:37:30;;;;;;;;;;;;;;;;;;6313242;28;20413;-85
2023/10/15 02:40:37;;;;;;;;;;;;;;;;;;6310435;28;20005;-85
2023/10/15 02:43:40;;;;;;;;;;;;;;;;;;6306201;28;19956;-85
2023/10/15 02:46:47;;;;;;;;;;;;;;;;;;6327948;27;19908;-85
2023/10/15 02:49:53;;;;;;;;;;;;;;;;;;6329492;27;19927;-86
2023/10/15 02:52:54;;;;;;;;;;;;;;;;;;6339532;27;19916;-85
2023/10/15 02:55:58;;;;;;;;;;;;;;;;;;6329589;28;19908;-85
2023/10/15 02:58:58;;;;;;;;;;;;;;;;;;6330361;28;20390;-86
2023/10/15 03:02:06;;;;;;;;;;;;;;;;;;6305650;28;19918;-85
2023/10/15 03:05:07;;;;;;;;;;;;;;;;;;6313488;28;19915;-85
2023/10/15 03:08:07;;;;;;;;;;;;;;;;;;6311988;28;19916;-85
2023/10/15 03:11:14;;;;;;;;;;;;;;;;;;6307204;28;20408;-85
2023/10/15 03:14:14;;;;;;;;;;;;;;;;;;6317147;28;19919;-85
2023/10/15 03:17:14;;;;;;;;;;;;;;;;;;6319917;28;19915;-85
2023/10/15 03:23:18;;;;;;;;;;;;;;;;;;6333071;28;19965;-85
2023/10/15 03:26:18;;;;;;;;;;;;;;;;;;6312377;28;19912;-85
2023/10/15 03:29:21;;;;;;;;;;;;;;;;;;6315780;28;19915;-85
2023/10/15 03:32:27;;;;;;;;;;;;;;;;;;6330794;28;20026;-85
2023/10/15 03:35:33;;;;;;;;;;;;;;;;;;6342947;27;19915;-85
2023/10/15 03:38:34;;;;;;;;;;;;;;;;;;6323948;28;20028;-85
2023/10/15 03:41:39;;;;;;;;;;;;;;;;;;6326041;28;20281;-85
2023/10/15 03:44:44;;;;;;;;;;;;;;;;;;6323750;28;19907;-85
2023/10/15 03:47:47;;;;;;;;;;;;;;;;;;6330667;27;19916;-85
2023/10/15 03:50:58;;;;;;;;;;;;;;;;;;6311308;28;19961;-85
2023/10/15 03:54:06;;;;;;;;;;;;;;;;;;6349125;27;19912;-85
2023/10/15 03:57:06;;;;;;;;;;;;;;;;;;6328785;28;20039;-86
2023/10/15 04:00:16;;;;;;;;;;;;;;;;;;6314173;27;19949;-85
2023/10/15 04:03:25;;;;;;;;;;;;;;;;;;6334532;27;19985;-85
2023/10/15 04:06:25;;;;;;;;;;;;;;;;;;6308090;28;19918;-85
2023/10/15 04:09:26;;;;;;;;;;;;;;;;;;6306769;28;19916;-85
2023/10/15 04:12:29;;;;;;;;;;;;;;;;;;6302789;28;19908;-85
2023/10/15 04:15:30;;;;;;;;;;;;;;;;;;6329915;28;19937;-85
2023/10/15 04:18:30;;;;;;;;;;;;;;;;;;6319504;28;19953;-85
2023/10/15 04:21:30;;;;;;;;;;;;;;;;;;6320182;28;19912;-86
2023/10/15 04:24:36;;;;;;;;;;;;;;;;;;6334866;28;20297;-85
2023/10/15 04:27:37;;;;;;;;;;;;;;;;;;6319322;28;19958;-85
2023/10/15 04:30:40;;;;;;;;;;;;;;;;;;6334686;28;19912;-85
2023/10/15 04:33:41;;;;;;;;;;;;;;;;;;6313598;28;19941;-85
2023/10/15 04:36:41;;;;;;;;;;;;;;;;;;6325079;28;19929;-85
2023/10/15 04:39:48;;;;;;;;;;;;;;;;;;6313355;28;19919;-85
2023/10/15 04:42:48;;;;;;;;;;;;;;;;;;6324537;28;19912;-85
2023/10/15 04:45:49;;;;;;;;;;;;;;;;;;6302085;28;20356;-85
2023/10/15 04:48:50;;;;;;;;;;;;;;;;;;6322027;28;19991;-85
2023/10/15 04:51:52;;;;;;;;;;;;;;;;;;6339508;28;20039;-85
2023/10/15 04:54:56;;;;;;;;;;;;;;;;;;6308196;28;20389;-85
2023/10/15 04:57:56;;;;;;;;;;;;;;;;;;6331565;28;20405;-85
2023/10/15 05:00:56;;;;;;;;;;;;;;;;;;6303319;28;19938;-85
2023/10/15 05:03:56;;;;;;;;;;;;;;;;;;6313234;28;19916;-85
2023/10/15 05:06:56;;;;;;;;;;;;;;;;;;6303817;28;20311;-84
2023/10/15 05:09:57;;;;;;;;;;;;;;;;;;6328301;28;19920;-85
2023/10/15 05:12:59;;;;;;;;;;;;;;;;;;6309960;28;20549;-85
2023/10/15 05:15:59;;;;;;;;;;;;;;;;;;6334444;28;19937;-85
2023/10/15 05:18:59;;;;;;;;;;;;;;;;;;6337194;28;19912;-85
2023/10/15 05:21:59;;;;;;;;;;;;;;;;;;6318619;28;19912;-85
2023/10/15 05:24:59;;;;;;;;;;;;;;;;;;6336600;28;20101;-85
2023/10/15 05:27:59;;;;;;;;;;;;;;;;;;6317441;28;20022;-85
2023/10/15 05:31:00;;;;;;;;;;;;;;;;;;6326890;28;20006;-85
2023/10/15 05:34:00;;;;;;;;;;;;;;;;;;6317168;28;19920;-85
2023/10/15 05:37:02;;;;;;;;;;;;;;;;;;6321433;28;20330;-85
2023/10/15 05:40:02;;;;;;;;;;;;;;;;;;6325378;28;20353;-85
2023/10/15 05:43:04;;;;;;;;;;;;;;;;;;6323595;28;19919;-85
2023/10/15 05:46:04;;;;;;;;;;;;;;;;;;6336738;27;19949;-85
2023/10/15 05:49:05;;;;;;;;;;;;;;;;;;6336369;27;20332;-85
2023/10/15 05:52:06;;;;;;;;;;;;;;;;;;6310801;28;20258;-85
2023/10/15 05:55:06;;;;;;;;;;;;;;;;;;6334222;27;19951;-85
2023/10/15 05:58:08;;;;;;;;;;;;;;;;;;6335589;28;19916;-85
2023/10/15 06:01:08;;;;;;;;;;;;;;;;;;6338941;27;19923;-85
2023/10/15 06:04:08;;;;;;;;;;;;;;;;;;6322326;28;19915;-85
2023/10/15 06:07:08;;;;;;;;;;;;;;;;;;6313928;28;20444;-85
2023/10/15 06:10:09;;;;;;;;;;;;;;;;;;6307064;28;19924;-85
2023/10/15 06:13:09;;;;;;;;;;;;;;;;;;6332757;27;19915;-86
2023/10/15 06:16:09;;;;;;;;;;;;;;;;;;6318881;28;19973;-85
2023/10/15 06:19:09;;;;;;;;;;;;;;;;;;6341299;28;20051;-85
2023/10/15 06:22:11;;;;;;;;;;;;;;;;;;6341066;28;19912;-85
2023/10/15 06:25:16;;;;;;;;;;;;;;;;;;6328371;28;20046;-85
2023/10/15 06:28:16;;;;;;;;;;;;;;;;;;6308754;28;19916;-85
2023/10/15 06:31:16;;;;;;;;;;;;;;;;;;6313323;28;19920;-85
2023/10/15 06:34:16;;;;;;;;;;;;;;;;;;6307452;28;19970;-85
2023/10/15 06:37:17;;;;;;;;;;;;;;;;;;6341239;27;19912;-85
2023/10/15 06:40:17;;;;;;;;;;;;;;;;;;6337432;27;20014;-85
2023/10/15 06:43:17;;;;;;;;;;;;;;;;;;6316339;28;20294;-85
2023/10/15 06:46:17;;;;;;;;;;;;;;;;;;6313100;28;20772;-85
2023/10/15 06:49:18;;;;;;;;;;;;;;;;;;6338336;27;19911;-87
2023/10/15 06:52:18;;;;;;;;;;;;;;;;;;6319062;27;19911;-87
2023/10/15 06:55:22;;;;;;;;;;;;;;;;;;6320357;28;19923;-88
2023/10/15 06:58:22;;;;;;;;;;;;;;;;;;6320882;28;19916;-88
2023/10/15 07:01:26;;;;;;;;;;;;;;;;;;6315114;28;19923;-88
2023/10/15 07:04:27;;;;;;;;;;;;;;;;;;6322271;28;19919;-88
2023/10/15 07:07:27;;;;;;;;;;;;;;;;;;6332886;28;19922;-88
2023/10/15 07:10:27;;;;;;;;;;;;;;;;;;6329990;28;19920;-88
2023/10/15 07:13:28;;;;;;;;;;;;;;;;;;6326161;28;19922;-88
2023/10/15 07:16:28;;;;;;;;;;;;;;;;;;6310603;28;19920;-88
2023/10/15 07:19:28;;;;;;;;;;;;;;;;;;6325374;28;20690;-88
2023/10/15 07:22:29;;;;;;;;;;;;;;;;;;6303351;28;19919;-88
2023/10/15 07:25:29;;;;;;;;;;;;;;;;;;6327240;28;19926;-88
2023/10/15 07:28:29;;;;;;;;;;;;;;;;;;6320007;28;19926;-88
2023/10/15 07:31:30;;;;;;;;;;;;;;;;;;6320568;28;19916;-88
2023/10/15 07:34:30;;;;;;;;;;;;;;;;;;6310429;28;20011;-87
2023/10/15 07:37:30;;;;;;;;;;;;;;;;;;6320300;28;19912;-88
2023/10/15 07:40:32;;;;;;;;;;;;;;;;;;6331589;28;19916;-88
2023/10/15 07:43:32;;;;;;;;;;;;;;;;;;6326217;28;19912;-87
2023/10/15 07:46:35;;;;;;;;;;;;;;;;;;6335030;28;19908;-87
2023/10/15 07:49:35;;;;;;;;;;;;;;;;;;6320956;28;20401;-88
2023/10/15 07:52:37;;;;;;;;;;;;;;;;;;6332581;27;19916;-88
2023/10/15 07:55:38;;;;;;;;;;;;;;;;;;6331148;27;19914;-89
2023/10/15 07:58:38;;;;;;;;;;;;;;;;;;6309686;27;19916;-89
2023/10/15 08:01:38;;;;;;;;;;;;;;;;;;6313306;28;19908;-88
2023/10/15 08:04:38;;;;;;;;;;;;;;;;;;6325840;27;19915;-88
2023/10/15 08:07:41;;;;;;;;;;;;;;;;;;6342164;27;19961;-88
2023/10/15 08:10:41;;;;;;;;;;;;;;;;;;6330984;28;19908;-88
2023/10/15 08:13:41;;;;;;;;;;;;;;;;;;6317535;28;19919;-88
2023/10/15 08:16:42;;;;;;;;;;;;;;;;;;6308053;28;21294;-88
2023/10/15 08:19:42;;;;;;;;;;;;;;;;;;6313148;28;20325;-88
2023/10/15 08:22:44;;;;;;;;;;;;;;;;;;6311333;28;19912;-88
2023/10/15 08:25:44;;;;;;;;;;;;;;;;;;6323603;28;20338;-88
2023/10/15 08:28:44;;;;;;;;;;;;;;;;;;6307308;28;19916;-89
2023/10/15 08:31:44;;;;;;;;;;;;;;;;;;6308811;28;19985;-88
2023/10/15 08:34:44;;;;;;;;;;;;;;;;;;6332419;28;20354;-88
2023/10/15 08:37:44;;;;;;;;;;;;;;;;;;6313099;28;19912;-88
2023/10/15 08:40:45;;;;;;;;;;;;;;;;;;6357163;28;19908;-88
2023/10/15 08:43:46;;;;;;;;;;;;;;;;;;6343420;28;19912;-88
2023/10/15 08:46:47;;;;;;;;;;;;;;;;;;6338028;28;19914;-88
2023/10/15 08:49:47;;;;;;;;;;;;;;;;;;6348997;28;19916;-88
2023/10/15 08:52:47;;;;;;;;;;;;;;;;;;6356347;28;19937;-88
2023/10/15 08:55:49;;;;;;;;;;;;;;;;;;6371712;28;19916;-88
2023/10/15 08:58:50;;;;;;;;;;;;;;;;;;6349211;27;19919;-86
2023/10/15 09:01:52;;;;;;;;;;;;;;;;;;6321434;28;20786;-86
2023/10/15 09:04:55;;;;;;;;;;;;;;;;;;6330236;28;19924;-85
2023/10/15 09:07:55;;;;;;;;;;;;;;;;;;6318886;28;20002;-85
2023/10/15 09:10:55;;;;;;;;;;;;;;;;;;6341104;28;19933;-85
2023/10/15 09:13:58;;;;;;;;;;;;;;;;;;6343877;28;20369;-85
2023/10/15 09:16:58;;;;;;;;;;;;;;;;;;6310737;28;19919;-85
2023/10/15 09:20:00;;;;;;;;;;;;;;;;;;6326099;28;19949;-86
2023/10/15 09:23:00;;;;;;;;;;;;;;;;;;6338706;28;19916;-85
2023/10/15 09:26:01;;;;;;;;;;;;;;;;;;6316903;28;19927;-85
2023/10/15 09:29:01;;;;;;;;;;;;;;;;;;6348224;28;19942;-85
2023/10/15 09:32:04;;;;;;;;;;;;;;;;;;6316903;28;19919;-86
2023/10/15 09:35:04;;;;;;;;;;;;;;;;;;6333047;27;19919;-85
2023/10/15 09:38:04;;;;;;;;;;;;;;;;;;6321990;28;19911;-85
2023/10/15 09:41:05;;;;;;;;;;;;;;;;;;6318906;28;19919;-84
2023/10/15 09:44:06;;;;;;;;;;;;;;;;;;6347025;28;20022;-85
2023/10/15 09:47:08;;;;;;;;;;;;;;;;;;6333561;28;19995;-86
2023/10/15 09:50:09;;;;;;;;;;;;;;;;;;6319961;28;19995;-86
2023/10/15 09:53:10;;;;;;;;;;;;;;;;;;6341899;27;19957;-86
2023/10/15 09:56:12;;;;;;;;;;;;;;;;;;6322402;28;20461;-86
2023/10/15 09:59:14;;;;;;;;;;;;;;;;;;6336146;28;19920;-85
2023/10/15 10:02:15;;;;;;;;;;;;;;;;;;6337628;28;19915;-84
2023/10/15 10:05:16;;;;;;;;;;;;;;;;;;6316856;28;20423;-86
2023/10/15 10:08:16;;;;;;;;;;;;;;;;;;6333839;28;19962;-86
2023/10/15 10:11:16;;;;;;;;;;;;;;;;;;6315448;28;19916;-86
2023/10/15 10:14:17;;;;;;;;;;;;;;;;;;6324120;28;20313;-86
2023/10/15 10:17:18;;;;;;;;;;;;;;;;;;6344829;28;19922;-86
2023/10/15 10:20:19;;;;;;;;;;;;;;;;;;6320591;28;19912;-86
2023/10/15 10:23:22;;;;;;;;;;;;;;;;;;6315643;28;20025;-86
2023/10/15 10:26:25;;;;;;;;;;;;;;;;;;6348902;28;20331;-85
2023/10/15 10:29:26;;;;;;;;;;;;;;;;;;6353557;28;19915;-86
2023/10/15 10:32:26;;;;;;;;;;;;;;;;;;6334585;28;19908;-86
2023/10/15 10:35:27;;;;;;;;;;;;;;;;;;6346848;27;19916;-86
2023/10/15 10:38:28;;;;;;;;;;;;;;;;;;6343180;27;20444;-86
2023/10/15 10:41:28;;;;;;;;;;;;;;;;;;6339314;28;19908;-86
2023/10/15 10:44:28;;;;;;;;;;;;;;;;;;6347730;28;19916;-86
2023/10/15 10:47:28;;;;;;;;;;;;;;;;;;6344471;27;19919;-86
2023/10/15 10:50:28;;;;;;;;;;;;;;;;;;6323727;28;19912;-86
2023/10/15 10:53:29;;;;;;;;;;;;;;;;;;6322373;27;19915;-87
2023/10/15 10:56:29;;;;;;;;;;;;;;;;;;6334253;28;19978;-86
2023/10/15 10:59:30;;;;;;;;;;;;;;;;;;6347696;28;20341;-86
2023/10/15 11:02:30;;;;;;;;;;;;;;;;;;6324085;28;20399;-86
2023/10/15 11:05:30;;;;;;;;;;;;;;;;;;6337611;28;19916;-86
2023/10/15 11:08:30;;;;;;;;;;;;;;;;;;6323055;28;19965;-86
2023/10/15 11:11:30;;;;;;;;;;;;;;;;;;6328751;28;20380;-86
2023/10/15 11:14:30;;;;;;;;;;;;;;;;;;6333430;28;20414;-85
2023/10/15 11:17:31;;;;;;;;;;;;;;;;;;6313352;28;20072;-88
2023/10/15 11:20:33;;;;;;;;;;;;;;;;;;6324087;28;19965;-88
2023/10/15 11:23:33;;;;;;;;;;;;;;;;;;6310767;28;20417;-88
2023/10/15 11:26:33;;;;;;;;;;;;;;;;;;6340194;28;19961;-86
2023/10/15 11:29:34;;;;;;;;;;;;;;;;;;6327300;28;20289;-86
2023/10/15 11:32:34;;;;;;;;;;;;;;;;;;6333702;28;20469;-86
2023/10/15 11:35:34;;;;;;;;;;;;;;;;;;6328805;27;19920;-87
2023/10/15 11:38:34;;;;;;;;;;;;;;;;;;6334037;28;19912;-86
2023/10/15 11:41:35;;;;;;;;;;;;;;;;;;6321099;28;20365;-86
2023/10/15 11:44:36;;;;;;;;;;;;;;;;;;6335183;28;20315;-86
2023/10/15 11:47:38;;;;;;;;;;;;;;;;;;6326078;27;20059;-86
2023/10/15 11:50:40;;;;;;;;;;;;;;;;;;6320820;27;19915;-86
2023/10/15 11:53:44;;;;;;;;;;;;;;;;;;6326271;27;20366;-86
2023/10/15 11:56:44;;;;;;;;;;;;;;;;;;6334489;28;20377;-86
2023/10/15 11:59:45;;;;;;;;;;;;;;;;;;6339012;28;19923;-85
2023/10/15 12:02:45;;;;;;;;;;;;;;;;;;6324325;28;19961;-86
2023/10/15 12:05:45;;;;;;;;;;;;;;;;;;6319304;28;19912;-85
2023/10/15 12:08:45;;;;;;;;;;;;;;;;;;6320256;28;20412;-86
2023/10/15 12:11:46;;;;;;;;;;;;;;;;;;6329867;28;19924;-86
2023/10/15 12:14:46;;;;;;;;;;;;;;;;;;6331486;28;19912;-86
2023/10/15 12:17:46;;;;;;;;;;;;;;;;;;6338675;28;19915;-86
2023/10/15 12:20:46;;;;;;;;;;;;;;;;;;6308953;28;19912;-86
2023/10/15 12:23:47;;;;;;;;;;;;;;;;;;6305113;28;19916;-86
2023/10/15 12:26:48;;;;;;;;;;;;;;;;;;6315581;28;20015;-87
2023/10/15 12:29:48;;;;;;;;;;;;;;;;;;6325805;28;19913;-86
2023/10/15 12:32:48;;;;;;;;;;;;;;;;;;6316580;28;19956;-85
2023/10/15 12:35:50;;;;;;;;;;;;;;;;;;6317185;28;20003;-86
2023/10/15 12:38:50;;;;;;;;;;;;;;;;;;6314669;28;19954;-86
2023/10/15 12:41:51;;;;;;;;;;;;;;;;;;6321700;28;19912;-86
2023/10/15 12:44:51;;;;;;;;;;;;;;;;;;6327614;28;19916;-86
2023/10/15 12:47:51;;;;;;;;;;;;;;;;;;6328854;28;19912;-86
2023/10/15 12:50:51;;;;;;;;;;;;;;;;;;6311633;28;20285;-86
2023/10/15 12:53:51;;;;;;;;;;;;;;;;;;6333209;28;20323;-85
2023/10/15 12:56:51;;;;;;;;;;;;;;;;;;6311419;28;20014;-86
2023/10/15 12:59:51;;;;;;;;;;;;;;;;;;6314314;28;19923;-86
2023/10/15 13:02:53;;;;;;;;;;;;;;;;;;6334271;28;19916;-86
2023/10/15 13:05:53;;;;;;;;;;;;;;;;;;6330273;28;20027;-86
2023/10/15 13:08:55;;;;;;;;;;;;;;;;;;6321647;28;19920;-86
2023/10/15 13:11:55;;;;;;;;;;;;;;;;;;6299028;28;19916;-86
2023/10/15 13:14:57;;;;;;;;;;;;;;;;;;6325405;28;19923;-85
2023/10/15 13:17:58;;;;;;;;;;;;;;;;;;6332040;28;19945;-86
2023/10/15 13:20:59;;;;;;;;;;;;;;;;;;6310642;28;19912;-86
2023/10/15 13:23:59;;;;;;;;;;;;;;;;;;6332231;28;19939;-85
2023/10/15 13:26:59;;;;;;;;;;;;;;;;;;6320474;28;19912;-86
2023/10/15 13:29:59;;;;;;;;;;;;;;;;;;6320021;28;20297;-86
2023/10/15 13:33:01;;;;;;;;;;;;;;;;;;6303578;28;20396;-86
2023/10/15 13:36:01;;;;;;;;;;;;;;;;;;6329850;28;19912;-85
2023/10/15 13:39:01;;;;;;;;;;;;;;;;;;6332486;28;20008;-87
2023/10/15 13:42:01;;;;;;;;;;;;;;;;;;6308182;28;19962;-88
2023/10/15 13:45:04;;;;;;;;;;;;;;;;;;6334421;28;19956;-88
2023/10/15 13:48:05;;;;;;;;;;;;;;;;;;6338132;27;19922;-85
2023/10/15 13:51:07;;;;;;;;;;;;;;;;;;6336527;27;19912;-85
2023/10/15 13:54:07;;;;;;;;;;;;;;;;;;6325090;28;20296;-85
2023/10/15 13:57:08;;;;;;;;;;;;;;;;;;6309882;28;19916;-85
2023/10/15 14:00:11;;;;;;;;;;;;;;;;;;6325632;28;19924;-86
2023/10/15 14:03:12;;;;;;;;;;;;;;;;;;6315713;28;19966;-87
2023/10/15 14:06:12;;;;;;;;;;;;;;;;;;6306256;28;19916;-86
2023/10/15 14:09:15;;;;;;;;;;;;;;;;;;6311691;28;20569;-86
2023/10/15 14:12:15;;;;;;;;;;;;;;;;;;6306968;28;19912;-86
2023/10/15 14:15:19;;;;;;;;;;;;;;;;;;6309222;28;19969;-87
2023/10/15 14:18:19;;;;;;;;;;;;;;;;;;6306300;28;19919;-85
2023/10/15 14:21:19;;;;;;;;;;;;;;;;;;6335505;28;19908;-84
2023/10/15 14:24:19;;;;;;;;;;;;;;;;;;6329099;28;19912;-85
2023/10/15 14:27:19;;;;;;;;;;;;;;;;;;6329605;27;19951;-85
2023/10/15 14:30:19;;;;;;;;;;;;;;;;;;6312865;28;20011;-85
2023/10/15 14:33:19;;;;;;;;;;;;;;;;;;6318766;28;19912;-85
2023/10/15 14:36:25;;;;;;;;;;;;;;;;;;6317587;28;19908;-85
2023/10/15 14:39:25;;;;;;;;;;;;;;;;;;6326618;28;19908;-85
2023/10/15 14:42:25;;;;;;;;;;;;;;;;;;6313288;28;19915;-86
2023/10/15 14:45:25;;;;;;;;;;;;;;;;;;6320618;28;20736;-84
2023/10/15 14:48:26;;;;;;;;;;;;;;;;;;6348468;27;19911;-84
2023/10/15 14:51:26;;;;;;;;;;;;;;;;;;6310319;28;19919;-84
2023/10/15 14:54:27;;;;;;;;;;;;;;;;;;6334513;27;19916;-84
2023/10/15 14:57:28;;;;;;;;;;;;;;;;;;6338176;27;20006;-83
2023/10/15 15:00:29;;;;;;;;;;;;;;;;;;6338604;27;19931;-84
2023/10/15 15:03:30;;;;;;;;;;;;;;;;;;6325032;28;19916;-84
2023/10/15 15:06:30;;;;;;;;;;;;;;;;;;6332220;28;19912;-83
2023/10/15 15:09:30;;;;;;;;;;;;;;;;;;6310530;28;19926;-84
2023/10/15 15:12:31;;;;;;;;;;;;;;;;;;6313146;28;20385;-84
2023/10/15 15:15:31;;;;;;;;;;;;;;;;;;6307182;28;20019;-83
2023/10/15 15:18:31;;;;;;;;;;;;;;;;;;6308573;28;19916;-84
2023/10/15 15:21:31;;;;;;;;;;;;;;;;;;6332067;28;19949;-84
2023/10/15 15:24:33;;;;;;;;;;;;;;;;;;6317438;28;19908;-83
2023/10/15 15:27:35;;;;;;;;;;;;;;;;;;6310951;28;19919;-84
2023/10/15 15:30:36;;;;;;;;;;;;;;;;;;6327389;28;19916;-84
2023/10/15 15:33:37;;;;;;;;;;;;;;;;;;6318321;28;19918;-84
2023/10/15 15:36:37;;;;;;;;;;;;;;;;;;6322201;28;20003;-84
2023/10/15 15:39:37;;;;;;;;;;;;;;;;;;6309229;28;19916;-84
2023/10/15 15:42:37;;;;;;;;;;;;;;;;;;6332725;28;20337;-83
2023/10/15 15:45:37;;;;;;;;;;;;;;;;;;6324233;28;20324;-84
2023/10/15 15:48:38;;;;;;;;;;;;;;;;;;6336958;27;19915;-84
2023/10/15 15:51:38;;;;;;;;;;;;;;;;;;6330692;27;19907;-83
2023/10/15 15:54:39;;;;;;;;;;;;;;;;;;6324501;28;19916;-84
2023/10/15 15:57:39;;;;;;;;;;;;;;;;;;6311730;28;19923;-83
2023/10/15 16:00:39;;;;;;;;;;;;;;;;;;6312184;28;20097;-84
2023/10/15 16:03:39;;;;;;;;;;;;;;;;;;6319617;28;20461;-84
2023/10/15 16:06:39;;;;;;;;;;;;;;;;;;6303810;28;19916;-84
2023/10/15 16:09:41;;;;;;;;;;;;;;;;;;6312374;28;20373;-83
2023/10/15 16:12:41;;;;;;;;;;;;;;;;;;6308754;28;19915;-84
2023/10/15 16:15:41;;;;;;;;;;;;;;;;;;6303422;28;19938;-84
2023/10/15 16:18:41;;;;;;;;;;;;;;;;;;6311691;28;19916;-84
2023/10/15 16:21:41;;;;;;;;;;;;;;;;;;6309822;28;19929;-84
2023/10/15 16:24:42;;;;;;;;;;;;;;;;;;6330599;28;19916;-84
2023/10/15 16:27:42;;;;;;;;;;;;;;;;;;6321069;28;19923;-84
2023/10/15 16:30:42;;;;;;;;;;;;;;;;;;6318025;28;19919;-84
2023/10/15 16:33:42;;;;;;;;;;;;;;;;;;6323058;28;20128;-84
2023/10/15 16:36:42;;;;;;;;;;;;;;;;;;6333559;27;19912;-84
2023/10/15 16:39:42;;;;;;;;;;;;;;;;;;6336184;28;19923;-84
2023/10/15 16:42:44;;;;;;;;;;;;;;;;;;6312560;28;20014;-84
2023/10/15 16:45:44;;;;;;;;;;;;;;;;;;6330842;28;19964;-84
2023/10/15 16:48:44;;;;;;;;;;;;;;;;;;6324813;28;20673;-84
2023/10/15 16:51:45;;;;;;;;;;;;;;;;;;6312487;28;19919;-83
2023/10/15 16:54:45;;;;;;;;;;;;;;;;;;6322906;28;20362;-84
2023/10/15 16:57:46;;;;;;;;;;;;;;;;;;6323500;28;19923;-84
2023/10/15 17:00:46;;;;;;;;;;;;;;;;;;6307474;28;19935;-84
2023/10/15 17:03:46;;;;;;;;;;;;;;;;;;6299818;28;19963;-84
2023/10/15 17:06:46;;;;;;;;;;;;;;;;;;6309548;28;20306;-90
2023/10/15 17:09:46;;;;;;;;;;;;;;;;;;6303204;28;20283;-91
2023/10/15 17:12:47;;;;;;;;;;;;;;;;;;6309357;28;19945;-91
2023/10/15 17:15:48;;;;;;;;;;;;;;;;;;6330497;28;20023;-90
2023/10/15 17:18:48;;;;;;;;;;;;;;;;;;6308203;28;19915;-84
2023/10/15 17:21:48;;;;;;;;;;;;;;;;;;6308486;28;19909;-84
2023/10/15 17:24:48;;;;;;;;;;;;;;;;;;6309524;28;19915;-84
2023/10/15 17:27:49;;;;;;;;;;;;;;;;;;6337250;28;19916;-84
2023/10/15 17:30:49;;;;;;;;;;;;;;;;;;6318762;28;19923;-84
2023/10/15 17:33:49;;;;;;;;;;;;;;;;;;6311431;28;19916;-84
2023/10/15 17:36:49;;;;;;;;;;;;;;;;;;6331223;28;19923;-84
2023/10/15 17:39:49;;;;;;;;;;;;;;;;;;6315166;28;19908;-84
2023/10/15 17:42:50;;;;;;;;;;;;;;;;;;6321711;28;19919;-84
2023/10/15 17:45:50;;;;;;;;;;;;;;;;;;6304683;28;19951;-84
2023/10/15 17:48:50;;;;;;;;;;;;;;;;;;6316055;28;20436;-84
2023/10/15 17:51:50;;;;;;;;;;;;;;;;;;6328964;27;19916;-84
2023/10/15 17:54:51;;;;;;;;;;;;;;;;;;6312982;28;19916;-84
2023/10/15 17:57:51;;;;;;;;;;;;;;;;;;6307393;28;19958;-84
2023/10/15 18:00:51;;;;;;;;;;;;;;;;;;6313704;28;20389;-84
2023/10/15 18:03:51;;;;;;;;;;;;;;;;;;6319631;28;20374;-84
2023/10/15 18:06:55;;;;;;;;;;;;;;;;;;6303743;27;19961;-84
2023/10/15 18:09:55;;;;;;;;;;;;;;;;;;6309283;28;19920;-85
2023/10/15 18:12:55;;;;;;;;;;;;;;;;;;6331797;27;19992;-84
2023/10/15 18:15:55;;;;;;;;;;;;;;;;;;6341388;28;20377;-85
2023/10/15 18:19:00;;;;;;;;;;;;;;;;;;6314173;28;19915;-84
2023/10/15 18:22:00;;;;;;;;;;;;;;;;;;6324958;28;19961;-84
2023/10/15 18:25:00;;;;;;;;;;;;;;;;;;6315645;28;19915;-84
2023/10/15 18:28:00;;;;;;;;;;;;;;;;;;6322444;28;19931;-84
2023/10/15 18:31:00;;;;;;;;;;;;;;;;;;6313425;28;19958;-84
2023/10/15 18:34:00;;;;;;;;;;;;;;;;;;6312074;28;20352;-84
2023/10/15 18:37:01;;;;;;;;;;;;;;;;;;6331587;27;19916;-84
2023/10/15 18:40:01;;;;;;;;;;;;;;;;;;6320653;28;19908;-84
2023/10/15 18:43:04;;;;;;;;;;;;;;;;;;6328418;28;19919;-84
2023/10/15 18:46:04;;;;;;;;;;;;;;;;;;6311344;28;19915;-85
2023/10/15 18:49:04;;;;;;;;;;;;;;;;;;6330438;27;19988;-85
2023/10/15 18:52:04;;;;;;;;;;;;;;;;;;6313072;27;19916;-84
2023/10/15 18:55:05;;;;;;;;;;;;;;;;;;6338273;27;19926;-84
2023/10/15 18:58:06;;;;;;;;;;;;;;;;;;6304051;28;20278;-84
2023/10/15 19:01:09;;;;;;;;;;;;;;;;;;6327056;28;19920;-85
2023/10/15 19:04:09;;;;;;;;;;;;;;;;;;6316260;28;19920;-84
2023/10/15 19:07:10;;;;;;;;;;;;;;;;;;6303501;28;19920;-84
2023/10/15 19:10:10;;;;;;;;;;;;;;;;;;6304654;28;20290;-84
2023/10/15 19:13:11;;;;;;;;;;;;;;;;;;6332627;28;20009;-84
2023/10/15 19:16:11;;;;;;;;;;;;;;;;;;6305590;28;19912;-84
2023/10/15 19:19:12;;;;;;;;;;;;;;;;;;6339371;28;19912;-84
2023/10/15 19:22:12;;;;;;;;;;;;;;;;;;6331801;28;19919;-84
2023/10/15 19:25:14;;;;;;;;;;;;;;;;;;6318217;28;19919;-84
2023/10/15 19:28:14;;;;;;;;;;;;;;;;;;6324500;28;19970;-84
2023/10/15 19:31:15;;;;;;;;;;;;;;;;;;6306157;28;20374;-84
2023/10/15 19:34:15;;;;;;;;;;;;;;;;;;6315522;28;19966;-84
2023/10/15 19:37:15;;;;;;;;;;;;;;;;;;6302246;28;20014;-84
2023/10/15 19:40:15;;;;;;;;;;;;;;;;;;6321205;28;19912;-84
2023/10/15 19:43:18;;;;;;;;;;;;;;;;;;6311285;28;19916;-84
2023/10/15 19:46:18;;;;;;;;;;;;;;;;;;6306805;28;19912;-84
2023/10/15 19:49:18;;;;;;;;;;;;;;;;;;6339312;27;19923;-84
2023/10/15 19:52:19;;;;;;;;;;;;;;;;;;6314288;27;19908;-84
2023/10/15 19:55:19;;;;;;;;;;;;;;;;;;6318411;28;19912;-83
2023/10/15 19:58:19;;;;;;;;;;;;;;;;;;6311138;28;19922;-84
2023/10/15 20:01:19;;;;;;;;;;;;;;;;;;6320048;28;20357;-83
2023/10/15 20:04:19;;;;;;;;;;;;;;;;;;6312135;28;19912;-84
2023/10/15 20:07:20;;;;;;;;;;;;;;;;;;6327322;28;19912;-84
2023/10/15 20:10:20;;;;;;;;;;;;;;;;;;6306872;28;19916;-83
2023/10/15 20:13:20;;;;;;;;;;;;;;;;;;6324798;28;20298;-84
2023/10/15 20:16:22;;;;;;;;;;;;;;;;;;6331381;28;19911;-83
2023/10/15 20:19:25;;;;;;;;;;;;;;;;;;6322474;28;20022;-84
2023/10/15 20:22:26;;;;;;;;;;;;;;;;;;6305139;28;19908;-83
2023/10/15 20:25:26;;;;;;;;;;;;;;;;;;6305337;28;19919;-84
2023/10/15 20:28:26;;;;;;;;;;;;;;;;;;6311047;28;19955;-83
2023/10/15 20:31:26;;;;;;;;;;;;;;;;;;6323830;28;19923;-83
2023/10/15 20:34:28;;;;;;;;;;;;;;;;;;6315658;28;20402;-83
2023/10/15 20:37:28;;;;;;;;;;;;;;;;;;6297087;28;19912;-90
2023/10/15 20:40:29;;;;;;;;;;;;;;;;;;6329688;28;19908;-90